N145AJ KCRQ-KSMX
Flight info
| Callsign | N145AJ |
|---|---|
| Flight time | 0h 47m |
| Altitude | 22000 |
| Route | PADRZ2 IKAYE RZS |
| Aircraft | LJ35/M-SGHRWXY/SB1 |
Departure
| Time | 2026-05-08 16:52 |
|---|---|
| Airport | McClellan-Palomar Airport (KCRQ) |
Arrival
| Time | 2026-05-08 17:40 |
|---|---|
| Airport | Santa Maria Public Airport Captain G Allan Hancock Field (KSMX) |
| Time | Latitude | Longitude | Altitude | Speed | Heading |
|---|---|---|---|---|---|
| 2026-05-08 16:39 | 33.12660 | -117.27683 | 326 ft | 0 kts | 228° |
| 2026-05-08 16:42 | 33.12662 | -117.27717 | 326 ft | 7 kts | 330° |
| 2026-05-08 16:42 | 33.12723 | -117.27742 | 326 ft | 11 kts | 348° |
| 2026-05-08 16:42 | 33.12785 | -117.27740 | 326 ft | 8 kts | 69° |
| 2026-05-08 16:43 | 33.12799 | -117.27655 | 325 ft | 13 kts | 79° |
| 2026-05-08 16:43 | 33.12819 | -117.27536 | 326 ft | 17 kts | 79° |
| 2026-05-08 16:43 | 33.12843 | -117.27387 | 325 ft | 20 kts | 79° |
| 2026-05-08 16:43 | 33.12860 | -117.27299 | 327 ft | 9 kts | 57° |
| 2026-05-08 16:44 | 33.12871 | -117.27282 | 325 ft | 0 kts | 48° |
| 2026-05-08 16:51 | 33.12892 | -117.27255 | 327 ft | 11 kts | 48° |
| 2026-05-08 16:51 | 33.12945 | -117.27266 | 329 ft | 13 kts | 261° |
| 2026-05-08 16:52 | 33.12942 | -117.27284 | 329 ft | 8 kts | 259° |
| 2026-05-08 16:52 | 33.12876 | -117.27701 | 326 ft | 111 kts | 259° |
| 2026-05-08 16:52 | 33.12684 | -117.28997 | 750 ft | 186 kts | 261° |
| 2026-05-08 16:52 | 33.12503 | -117.30717 | 1815 ft | 226 kts | 263° |
| 2026-05-08 16:53 | 33.12289 | -117.34302 | 5226 ft | 216 kts | 274° |
| 2026-05-08 16:53 | 33.12625 | -117.36157 | 6035 ft | 246 kts | 291° |
| 2026-05-08 16:53 | 33.13528 | -117.38061 | 6614 ft | 267 kts | 308° |
| 2026-05-08 16:54 | 33.14702 | -117.39657 | 7250 ft | 249 kts | 313° |
| 2026-05-08 16:54 | 33.15910 | -117.41103 | 7651 ft | 237 kts | 316° |
| 2026-05-08 16:54 | 33.17045 | -117.42355 | 8306 ft | 224 kts | 317° |
| 2026-05-08 16:54 | 33.18163 | -117.43569 | 9057 ft | 182 kts | 319° |
| 2026-05-08 16:55 | 33.19138 | -117.44480 | 9560 ft | 189 kts | 325° |
| 2026-05-08 16:55 | 33.20267 | -117.45536 | 9077 ft | 227 kts | 305° |
| 2026-05-08 16:55 | 33.20913 | -117.47443 | 8642 ft | 258 kts | 288° |
| 2026-05-08 16:55 | 33.21496 | -117.49592 | 8125 ft | 285 kts | 288° |
| 2026-05-08 16:56 | 33.22115 | -117.51891 | 7944 ft | 293 kts | 288° |
| 2026-05-08 16:56 | 33.22733 | -117.54195 | 8104 ft | 286 kts | 288° |
| 2026-05-08 16:56 | 33.23319 | -117.56384 | 8492 ft | 274 kts | 288° |
| 2026-05-08 16:56 | 33.23887 | -117.58512 | 8871 ft | 264 kts | 288° |
| 2026-05-08 16:57 | 33.24435 | -117.60571 | 9248 ft | 256 kts | 287° |
| 2026-05-08 16:57 | 33.24542 | -117.62649 | 9609 ft | 251 kts | 259° |
| 2026-05-08 16:57 | 33.23948 | -117.64578 | 10006 ft | 244 kts | 246° |
| 2026-05-08 16:57 | 33.23440 | -117.65993 | 10341 ft | 240 kts | 250° |
| 2026-05-08 16:58 | 33.22963 | -117.67936 | 10798 ft | 248 kts | 257° |
| 2026-05-08 16:58 | 33.22600 | -117.69996 | 11265 ft | 264 kts | 259° |
| 2026-05-08 16:58 | 33.22173 | -117.72318 | 11772 ft | 308 kts | 257° |
| 2026-05-08 16:58 | 33.21636 | -117.74966 | 12314 ft | 346 kts | 257° |
| 2026-05-08 16:59 | 33.21040 | -117.77885 | 13039 ft | 366 kts | 257° |
| 2026-05-08 16:59 | 33.20462 | -117.80859 | 14402 ft | 373 kts | 259° |
| 2026-05-08 16:59 | 33.20310 | -117.83968 | 15519 ft | 378 kts | 275° |
| 2026-05-08 16:59 | 33.20885 | -117.87046 | 16687 ft | 383 kts | 291° |
| 2026-05-08 17:00 | 33.22142 | -117.89867 | 17825 ft | 388 kts | 306° |
| 2026-05-08 17:00 | 33.23968 | -117.92271 | 18876 ft | 393 kts | 318° |
| 2026-05-08 17:00 | 33.26058 | -117.94418 | 19872 ft | 399 kts | 321° |
| 2026-05-08 17:00 | 33.28192 | -117.96570 | 20845 ft | 405 kts | 319° |
| 2026-05-08 17:01 | 33.30218 | -117.98940 | 21802 ft | 411 kts | 314° |
| 2026-05-08 17:01 | 33.32164 | -118.01452 | 22075 ft | 405 kts | 314° |
| 2026-05-08 17:01 | 33.34126 | -118.03859 | 22076 ft | 405 kts | 316° |
| 2026-05-08 17:01 | 33.36143 | -118.06185 | 22079 ft | 411 kts | 317° |
| 2026-05-08 17:02 | 33.38198 | -118.08601 | 22076 ft | 417 kts | 315° |
| 2026-05-08 17:02 | 33.40243 | -118.11092 | 22083 ft | 422 kts | 315° |
| 2026-05-08 17:02 | 33.42321 | -118.13610 | 22098 ft | 426 kts | 315° |
| 2026-05-08 17:02 | 33.44128 | -118.15764 | 22096 ft | 428 kts | 316° |
| 2026-05-08 17:03 | 33.46249 | -118.18292 | 22097 ft | 431 kts | 315° |
| 2026-05-08 17:03 | 33.48365 | -118.20839 | 22098 ft | 433 kts | 315° |
| 2026-05-08 17:03 | 33.50493 | -118.23407 | 22103 ft | 434 kts | 315° |
| 2026-05-08 17:03 | 33.52628 | -118.25974 | 22099 ft | 435 kts | 315° |
| 2026-05-08 17:04 | 33.54764 | -118.28542 | 22099 ft | 436 kts | 315° |
| 2026-05-08 17:04 | 33.56935 | -118.31159 | 22096 ft | 436 kts | 315° |
| 2026-05-08 17:04 | 33.59074 | -118.33740 | 22103 ft | 437 kts | 315° |
| 2026-05-08 17:04 | 33.61219 | -118.36330 | 22096 ft | 437 kts | 315° |
| 2026-05-08 17:05 | 33.63359 | -118.38913 | 22091 ft | 437 kts | 315° |
| 2026-05-08 17:05 | 33.65473 | -118.41468 | 22090 ft | 437 kts | 315° |
| 2026-05-08 17:05 | 33.67613 | -118.44058 | 22091 ft | 437 kts | 315° |
| 2026-05-08 17:05 | 33.69753 | -118.46648 | 22087 ft | 437 kts | 315° |
| 2026-05-08 17:06 | 33.71894 | -118.49241 | 22091 ft | 437 kts | 315° |
| 2026-05-08 17:06 | 33.74031 | -118.51831 | 22084 ft | 437 kts | 315° |
| 2026-05-08 17:06 | 33.76173 | -118.54429 | 22093 ft | 437 kts | 315° |
| 2026-05-08 17:06 | 33.78312 | -118.57027 | 22095 ft | 437 kts | 315° |
| 2026-05-08 17:07 | 33.80449 | -118.59623 | 22092 ft | 437 kts | 315° |
| 2026-05-08 17:07 | 33.82584 | -118.62220 | 22092 ft | 437 kts | 315° |
| 2026-05-08 17:07 | 33.84721 | -118.64821 | 22097 ft | 437 kts | 315° |
| 2026-05-08 17:07 | 33.86853 | -118.67417 | 22098 ft | 437 kts | 315° |
| 2026-05-08 17:08 | 33.88987 | -118.70017 | 22091 ft | 437 kts | 315° |
| 2026-05-08 17:08 | 33.91108 | -118.72604 | 22092 ft | 437 kts | 315° |
| 2026-05-08 17:08 | 33.93264 | -118.75234 | 22088 ft | 437 kts | 315° |
| 2026-05-08 17:08 | 33.95384 | -118.77824 | 22088 ft | 437 kts | 315° |
| 2026-05-08 17:09 | 33.97516 | -118.80432 | 22095 ft | 437 kts | 315° |
| 2026-05-08 17:09 | 33.99646 | -118.83037 | 22095 ft | 436 kts | 315° |
| 2026-05-08 17:09 | 34.01778 | -118.85646 | 22095 ft | 437 kts | 315° |
| 2026-05-08 17:09 | 34.03906 | -118.88255 | 22092 ft | 437 kts | 315° |
| 2026-05-08 17:10 | 34.06038 | -118.90868 | 22104 ft | 436 kts | 315° |
| 2026-05-08 17:10 | 34.08197 | -118.93516 | 22103 ft | 437 kts | 315° |
| 2026-05-08 17:10 | 34.10321 | -118.96126 | 22091 ft | 437 kts | 314° |
| 2026-05-08 17:10 | 34.12451 | -118.98744 | 22091 ft | 437 kts | 314° |
| 2026-05-08 17:11 | 34.14486 | -119.01462 | 22085 ft | 437 kts | 307° |
| 2026-05-08 17:11 | 34.16107 | -119.04558 | 22084 ft | 437 kts | 300° |
| 2026-05-08 17:11 | 34.17592 | -119.07762 | 22082 ft | 437 kts | 299° |
| 2026-05-08 17:11 | 34.19096 | -119.10962 | 22094 ft | 437 kts | 300° |
| 2026-05-08 17:12 | 34.20658 | -119.14112 | 22085 ft | 437 kts | 301° |
| 2026-05-08 17:12 | 34.22219 | -119.17265 | 22091 ft | 437 kts | 301° |
| 2026-05-08 17:12 | 34.23747 | -119.20439 | 22090 ft | 437 kts | 300° |
| 2026-05-08 17:12 | 34.25268 | -119.23626 | 21961 ft | 440 kts | 300° |
| 2026-05-08 17:13 | 34.26820 | -119.26840 | 21807 ft | 442 kts | 300° |
| 2026-05-08 17:13 | 34.28382 | -119.30043 | 21653 ft | 444 kts | 300° |
| 2026-05-08 17:13 | 34.29941 | -119.33265 | 21634 ft | 442 kts | 300° |
| 2026-05-08 17:13 | 34.31488 | -119.36487 | 21518 ft | 443 kts | 300° |
| 2026-05-08 17:14 | 34.33038 | -119.39708 | 21481 ft | 442 kts | 300° |
| 2026-05-08 17:14 | 34.34590 | -119.42925 | 21355 ft | 443 kts | 300° |
| 2026-05-08 17:14 | 34.36139 | -119.46143 | 21328 ft | 442 kts | 300° |
| 2026-05-08 17:14 | 34.37672 | -119.49335 | 20952 ft | 433 kts | 300° |
| 2026-05-08 17:15 | 34.39200 | -119.52521 | 20016 ft | 439 kts | 300° |
| 2026-05-08 17:15 | 34.40703 | -119.55655 | 19596 ft | 431 kts | 300° |
| 2026-05-08 17:15 | 34.42183 | -119.58742 | 19225 ft | 417 kts | 300° |
| 2026-05-08 17:15 | 34.43621 | -119.61742 | 18854 ft | 407 kts | 300° |
| 2026-05-08 17:16 | 34.45026 | -119.64681 | 18489 ft | 400 kts | 300° |
| 2026-05-08 17:16 | 34.46412 | -119.67580 | 18075 ft | 394 kts | 300° |
| 2026-05-08 17:16 | 34.47778 | -119.70439 | 17651 ft | 390 kts | 300° |
| 2026-05-08 17:16 | 34.49128 | -119.73268 | 17236 ft | 386 kts | 300° |
| 2026-05-08 17:17 | 34.50465 | -119.76070 | 16825 ft | 383 kts | 300° |
| 2026-05-08 17:17 | 34.51899 | -119.78771 | 16422 ft | 380 kts | 304° |
| 2026-05-08 17:17 | 34.53414 | -119.81383 | 16028 ft | 378 kts | 305° |
| 2026-05-08 17:17 | 34.54917 | -119.83997 | 15643 ft | 376 kts | 304° |
| 2026-05-08 17:18 | 34.56402 | -119.86605 | 15259 ft | 375 kts | 304° |
| 2026-05-08 17:18 | 34.57884 | -119.89203 | 14882 ft | 373 kts | 304° |
| 2026-05-08 17:18 | 34.59364 | -119.91788 | 14508 ft | 373 kts | 304° |
| 2026-05-08 17:18 | 34.60842 | -119.94371 | 14144 ft | 372 kts | 304° |
| 2026-05-08 17:19 | 34.62313 | -119.96950 | 13763 ft | 371 kts | 304° |
| 2026-05-08 17:19 | 34.63779 | -119.99524 | 13387 ft | 369 kts | 304° |
| 2026-05-08 17:19 | 34.65233 | -120.02075 | 13074 ft | 366 kts | 304° |
| 2026-05-08 17:19 | 34.66681 | -120.04615 | 12748 ft | 364 kts | 304° |
| 2026-05-08 17:20 | 34.68118 | -120.07141 | 12422 ft | 362 kts | 304° |
| 2026-05-08 17:20 | 34.69547 | -120.09654 | 12105 ft | 360 kts | 305° |
| 2026-05-08 17:20 | 34.70968 | -120.12155 | 11787 ft | 359 kts | 305° |
| 2026-05-08 17:20 | 34.72382 | -120.14645 | 11474 ft | 357 kts | 305° |
| 2026-05-08 17:21 | 34.73766 | -120.17081 | 11103 ft | 350 kts | 305° |
| 2026-05-08 17:21 | 34.75127 | -120.19481 | 10732 ft | 340 kts | 305° |
| 2026-05-08 17:21 | 34.76451 | -120.21822 | 10352 ft | 332 kts | 305° |
| 2026-05-08 17:21 | 34.77748 | -120.24111 | 9991 ft | 325 kts | 305° |
| 2026-05-08 17:22 | 34.79014 | -120.26347 | 9581 ft | 314 kts | 305° |
| 2026-05-08 17:22 | 34.80224 | -120.28486 | 9170 ft | 299 kts | 305° |
| 2026-05-08 17:22 | 34.81380 | -120.30531 | 8761 ft | 288 kts | 305° |
| 2026-05-08 17:22 | 34.82497 | -120.32508 | 8352 ft | 279 kts | 305° |
| 2026-05-08 17:23 | 34.83580 | -120.34427 | 7952 ft | 272 kts | 305° |
| 2026-05-08 17:23 | 34.84639 | -120.36304 | 7554 ft | 266 kts | 305° |
| 2026-05-08 17:23 | 34.85678 | -120.38144 | 7163 ft | 262 kts | 305° |
| 2026-05-08 17:23 | 34.86703 | -120.39963 | 6783 ft | 258 kts | 305° |
| 2026-05-08 17:24 | 34.87702 | -120.41766 | 6393 ft | 255 kts | 304° |
| 2026-05-08 17:24 | 34.88683 | -120.43557 | 5991 ft | 253 kts | 304° |
| 2026-05-08 17:24 | 34.89646 | -120.45321 | 5598 ft | 255 kts | 304° |
| 2026-05-08 17:24 | 34.90632 | -120.47141 | 5209 ft | 259 kts | 303° |
| 2026-05-08 17:25 | 34.91386 | -120.49148 | 4818 ft | 264 kts | 288° |
| 2026-05-08 17:25 | 34.91835 | -120.51328 | 4429 ft | 266 kts | 284° |
| 2026-05-08 17:25 | 34.92224 | -120.53546 | 4042 ft | 269 kts | 283° |
| 2026-05-08 17:25 | 34.92611 | -120.55782 | 3660 ft | 270 kts | 283° |
| 2026-05-08 17:26 | 34.92987 | -120.57963 | 3682 ft | 256 kts | 284° |
| 2026-05-08 17:26 | 34.93328 | -120.60037 | 3740 ft | 244 kts | 283° |
| 2026-05-08 17:26 | 34.93646 | -120.62000 | 3903 ft | 230 kts | 283° |
| 2026-05-08 17:26 | 34.93947 | -120.63877 | 3986 ft | 223 kts | 283° |
| 2026-05-08 17:27 | 34.94253 | -120.65717 | 3984 ft | 221 kts | 284° |
| 2026-05-08 17:27 | 34.94573 | -120.67535 | 3990 ft | 218 kts | 284° |
| 2026-05-08 17:27 | 34.94890 | -120.69333 | 3991 ft | 217 kts | 284° |
| 2026-05-08 17:27 | 34.95205 | -120.71132 | 3989 ft | 217 kts | 284° |
| 2026-05-08 17:28 | 34.95517 | -120.72910 | 3982 ft | 217 kts | 284° |
| 2026-05-08 17:28 | 34.95903 | -120.74688 | 3986 ft | 217 kts | 289° |
| 2026-05-08 17:28 | 34.96492 | -120.76375 | 3989 ft | 216 kts | 304° |
| 2026-05-08 17:28 | 34.97431 | -120.77799 | 3988 ft | 216 kts | 312° |
| 2026-05-08 17:29 | 34.98434 | -120.79161 | 3985 ft | 216 kts | 313° |
| 2026-05-08 17:29 | 34.99122 | -120.80087 | 3984 ft | 217 kts | 313° |
| 2026-05-08 17:29 | 35.00132 | -120.81442 | 3982 ft | 217 kts | 313° |
| 2026-05-08 17:29 | 35.01478 | -120.83250 | 3983 ft | 217 kts | 313° |
| 2026-05-08 17:30 | 35.02167 | -120.84175 | 3977 ft | 217 kts | 313° |
| 2026-05-08 17:30 | 35.03195 | -120.85524 | 3983 ft | 217 kts | 314° |
| 2026-05-08 17:30 | 35.04222 | -120.86875 | 3984 ft | 217 kts | 313° |
| 2026-05-08 17:30 | 35.05226 | -120.88222 | 3983 ft | 217 kts | 313° |
| 2026-05-08 17:31 | 35.06244 | -120.89583 | 3984 ft | 217 kts | 314° |
| 2026-05-08 17:31 | 35.07531 | -120.90477 | 3976 ft | 217 kts | 350° |
| 2026-05-08 17:31 | 35.08994 | -120.90177 | 3977 ft | 219 kts | 28° |
| 2026-05-08 17:31 | 35.09996 | -120.88805 | 3977 ft | 222 kts | 65° |
| 2026-05-08 17:32 | 35.10331 | -120.86957 | 3980 ft | 224 kts | 82° |
| 2026-05-08 17:32 | 35.10258 | -120.85056 | 3980 ft | 226 kts | 102° |
| 2026-05-08 17:32 | 35.09704 | -120.83258 | 3988 ft | 227 kts | 111° |
| 2026-05-08 17:32 | 35.09134 | -120.81462 | 3986 ft | 227 kts | 109° |
| 2026-05-08 17:33 | 35.08572 | -120.79618 | 3812 ft | 235 kts | 107° |
| 2026-05-08 17:33 | 35.08147 | -120.77662 | 3630 ft | 241 kts | 99° |
| 2026-05-08 17:33 | 35.07866 | -120.75622 | 3457 ft | 246 kts | 96° |
| 2026-05-08 17:33 | 35.07670 | -120.73567 | 3302 ft | 240 kts | 95° |
| 2026-05-08 17:34 | 35.07503 | -120.71591 | 3297 ft | 228 kts | 94° |
| 2026-05-08 17:34 | 35.07344 | -120.69709 | 3290 ft | 219 kts | 94° |
| 2026-05-08 17:34 | 35.07188 | -120.67895 | 3280 ft | 211 kts | 94° |
| 2026-05-08 17:34 | 35.06811 | -120.66200 | 3280 ft | 206 kts | 116° |
| 2026-05-08 17:35 | 35.06018 | -120.64773 | 3283 ft | 202 kts | 130° |
| 2026-05-08 17:35 | 35.05061 | -120.63551 | 3286 ft | 197 kts | 133° |
| 2026-05-08 17:35 | 35.04097 | -120.62391 | 3287 ft | 193 kts | 135° |
| 2026-05-08 17:35 | 35.03138 | -120.61239 | 3287 ft | 192 kts | 133° |
| 2026-05-08 17:36 | 35.02189 | -120.60090 | 3285 ft | 192 kts | 134° |
| 2026-05-08 17:36 | 35.01217 | -120.58927 | 3084 ft | 200 kts | 133° |
| 2026-05-08 17:36 | 35.00220 | -120.57716 | 2829 ft | 201 kts | 134° |
| 2026-05-08 17:36 | 34.99261 | -120.56555 | 2582 ft | 193 kts | 128° |
| 2026-05-08 17:37 | 34.98334 | -120.55431 | 2321 ft | 180 kts | 131° |
| 2026-05-08 17:37 | 34.97468 | -120.54393 | 2095 ft | 168 kts | 127° |
| 2026-05-08 17:37 | 34.96668 | -120.53397 | 1875 ft | 162 kts | 130° |
| 2026-05-08 17:37 | 34.95870 | -120.52448 | 1655 ft | 157 kts | 132° |
| 2026-05-08 17:38 | 34.95109 | -120.51546 | 1457 ft | 150 kts | 132° |
| 2026-05-08 17:38 | 34.94358 | -120.50651 | 1250 ft | 151 kts | 131° |
| 2026-05-08 17:38 | 34.93605 | -120.49757 | 1042 ft | 151 kts | 132° |
| 2026-05-08 17:38 | 34.92859 | -120.48864 | 834 ft | 150 kts | 133° |
| 2026-05-08 17:39 | 34.92105 | -120.47956 | 593 ft | 155 kts | 133° |
| 2026-05-08 17:39 | 34.91335 | -120.47040 | 382 ft | 155 kts | 133° |
| 2026-05-08 17:39 | 34.90585 | -120.46139 | 214 ft | 144 kts | 135° |
| 2026-05-08 17:39 | 34.89998 | -120.45443 | 226 ft | 92 kts | 135° |
| 2026-05-08 17:40 | 34.89739 | -120.45136 | 230 ft | 13 kts | 133° |
| 2026-05-08 17:40 | 34.89703 | -120.45042 | 235 ft | 15 kts | 41° |
| 2026-05-08 17:40 | 34.89813 | -120.45029 | 233 ft | 18 kts | 0° |
| 2026-05-08 17:40 | 34.89948 | -120.45027 | 234 ft | 21 kts | 1° |
| 2026-05-08 17:41 | 34.90030 | -120.45057 | 232 ft | 13 kts | 301° |
| 2026-05-08 17:41 | 34.90122 | -120.45082 | 231 ft | 11 kts | 8° |
| 2026-05-08 17:41 | 34.90156 | -120.45076 | 231 ft | 0 kts | 5° |